Time;durP1;ratioP1;P1;durP2;ratioP2;P2;SDS_P1;SDS_P2;PMS_P1;PMS_P2;Temp;Humidity;BMP_temperature;BMP_pressure;BME280_temperature;BME280_humidity;BME280_pressure;Samples;Min_cycle;Max_cycle;Signal;HPM_P1;HPM_P2
2023/09/04 00:00:40;;;;;;;3.25;2.83;;;;;;;;;;5022798;28;20192;-69
2023/09/04 00:03:05;;;;;;;3.25;2.72;;;;;;;;;;5029205;28;20198;-69
2023/09/04 00:05:34;;;;;;;4.10;3.60;;;;;;;;;;5029853;28;20201;-69
2023/09/04 00:07:59;;;;;;;6.53;3.00;;;;;;;;;;5026149;28;20187;-69
2023/09/04 00:10:24;;;;;;;5.13;3.25;;;;;;;;;;5023377;28;20182;-69
2023/09/04 00:12:50;;;;;;;3.35;3.05;;;;;;;;;;5033703;28;20213;-70
2023/09/04 00:15:15;;;;;;;3.42;2.67;;;;;;;;;;5028093;28;20182;-69
2023/09/04 00:17:40;;;;;;;4.53;3.17;;;;;;;;;;5026236;28;20261;-70
2023/09/04 00:20:05;;;;;;;4.30;3.38;;;;;;;;;;5027323;28;20217;-69
2023/09/04 00:22:31;;;;;;;4.05;3.65;;;;;;;;;;5030942;28;20583;-69
2023/09/04 00:24:57;;;;;;;5.10;4.25;;;;;;;;;;5028283;23;20235;-69
2023/09/04 00:27:23;;;;;;;5.50;4.10;;;;;;;;;;5026848;28;20174;-69
2023/09/04 00:29:48;;;;;;;5.82;3.92;;;;;;;;;;5025137;28;20208;-69
2023/09/04 00:32:13;;;;;;;6.50;4.07;;;;;;;;;;5031675;28;20593;-70
2023/09/04 00:34:38;;;;;;;4.88;3.55;;;;;;;;;;5024211;28;20197;-70
2023/09/04 00:37:06;;;;;;;4.88;3.83;;;;;;;;;;5029313;28;20257;-69
2023/09/04 00:39:31;;;;;;;6.70;4.25;;;;;;;;;;5023450;28;20175;-70
2023/09/04 00:41:56;;;;;;;5.13;3.95;;;;;;;;;;5014363;28;20182;-69
2023/09/04 00:44:21;;;;;;;4.70;3.88;;;;;;;;;;5027528;28;20252;-69
2023/09/04 00:46:46;;;;;;;4.82;4.03;;;;;;;;;;5026245;28;20217;-69
2023/09/04 00:49:12;;;;;;;4.40;3.38;;;;;;;;;;5028536;28;20663;-69
2023/09/04 00:51:38;;;;;;;4.53;3.47;;;;;;;;;;5018481;28;20179;-70
2023/09/04 00:54:04;;;;;;;3.67;2.95;;;;;;;;;;5021337;28;20226;-69
2023/09/04 00:56:29;;;;;;;4.47;3.63;;;;;;;;;;5021472;28;20190;-69
2023/09/04 00:58:54;;;;;;;5.03;4.18;;;;;;;;;;5015444;28;20599;-69
2023/09/04 01:01:20;;;;;;;5.28;3.95;;;;;;;;;;5021183;28;20216;-69
2023/09/04 01:03:45;;;;;;;4.20;3.78;;;;;;;;;;5028076;28;20202;-69
2023/09/04 01:06:11;;;;;;;4.82;3.90;;;;;;;;;;5030577;28;20216;-68
2023/09/04 01:08:36;;;;;;;4.95;4.05;;;;;;;;;;5021657;28;20178;-68
2023/09/04 01:11:07;;;;;;;6.40;3.80;;;;;;;;;;5022195;28;20200;-68
2023/09/04 01:13:49;;;;;;;4.78;4.28;;;;;;;;;;5023903;28;20198;-68
2023/09/04 01:16:14;;;;;;;4.45;3.58;;;;;;;;;;5020768;28;20320;-68
2023/09/04 01:18:40;;;;;;;6.38;4.95;;;;;;;;;;5028469;28;20261;-67
2023/09/04 01:21:05;;;;;;;9.90;4.82;;;;;;;;;;5029518;28;20660;-68
2023/09/04 01:23:31;;;;;;;4.80;4.30;;;;;;;;;;5021512;28;20211;-68
2023/09/04 01:26:02;;;;;;;5.35;4.32;;;;;;;;;;5022743;28;20209;-68
2023/09/04 01:28:40;;;;;;;6.00;4.53;;;;;;;;;;5020977;28;20511;-68
2023/09/04 01:31:26;;;;;;;4.72;3.83;;;;;;;;;;5027473;28;20655;-68
2023/09/04 01:33:57;;;;;;;5.03;3.50;;;;;;;;;;5028937;28;20213;-68
2023/09/04 01:36:23;;;;;;;4.57;3.78;;;;;;;;;;5012602;28;20190;-68
2023/09/04 01:38:49;;;;;;;3.97;3.50;;;;;;;;;;5018307;28;20796;-68
2023/09/04 01:41:14;;;;;;;5.80;3.97;;;;;;;;;;5015631;28;20256;-68
2023/09/04 01:43:39;;;;;;;6.47;4.00;;;;;;;;;;5026459;28;20547;-68
2023/09/04 01:46:05;;;;;;;5.43;4.20;;;;;;;;;;5023296;28;20198;-68
2023/09/04 01:48:30;;;;;;;6.15;4.30;;;;;;;;;;5025463;28;20314;-68
2023/09/04 01:50:55;;;;;;;5.85;4.38;;;;;;;;;;5027168;28;20555;-68
2023/09/04 01:53:22;;;;;;;5.35;4.38;;;;;;;;;;5024182;28;20194;-68
2023/09/04 01:55:47;;;;;;;4.07;3.60;;;;;;;;;;5022953;28;20621;-68
2023/09/04 01:58:12;;;;;;;5.53;3.70;;;;;;;;;;5023281;28;20268;-68
2023/09/04 02:00:38;;;;;;;5.00;4.20;;;;;;;;;;5017843;28;20185;-69
2023/09/04 02:03:03;;;;;;;5.10;3.67;;;;;;;;;;5017530;28;20562;-68
2023/09/04 02:05:28;;;;;;;5.40;4.07;;;;;;;;;;5017345;28;20213;-68
2023/09/04 02:07:53;;;;;;;4.90;4.35;;;;;;;;;;5020042;28;20186;-68
2023/09/04 02:10:22;;;;;;;6.35;5.22;;;;;;;;;;5023634;28;20179;-69
2023/09/04 02:12:47;;;;;;;5.57;4.40;;;;;;;;;;5021277;28;20179;-68
2023/09/04 02:15:13;;;;;;;4.75;3.78;;;;;;;;;;5017156;28;20274;-68
2023/09/04 02:17:38;;;;;;;5.03;4.53;;;;;;;;;;5027018;28;20654;-68
2023/09/04 02:20:04;;;;;;;6.18;4.78;;;;;;;;;;5020260;28;20186;-68
2023/09/04 02:22:30;;;;;;;7.35;5.22;;;;;;;;;;5027596;28;20301;-68
2023/09/04 02:24:55;;;;;;;5.97;4.55;;;;;;;;;;5043525;28;20300;-68
2023/09/04 02:27:20;;;;;;;9.18;5.30;;;;;;;;;;5023898;28;20181;-68
2023/09/04 02:29:46;;;;;;;7.97;5.40;;;;;;;;;;5023023;28;20183;-68
2023/09/04 02:32:11;;;;;;;7.80;5.57;;;;;;;;;;5025474;28;20181;-69
2023/09/04 02:34:36;;;;;;;6.22;4.85;;;;;;;;;;5016474;28;20707;-68
2023/09/04 02:37:01;;;;;;;6.90;5.80;;;;;;;;;;5026717;28;20620;-68
2023/09/04 02:39:27;;;;;;;6.75;5.47;;;;;;;;;;5027623;28;20186;-68
2023/09/04 02:41:52;;;;;;;10.43;6.43;;;;;;;;;;5021754;28;20182;-68
2023/09/04 02:44:17;;;;;;;9.10;5.75;;;;;;;;;;5025880;28;20274;-68
2023/09/04 02:46:42;;;;;;;7.50;5.88;;;;;;;;;;5017849;28;20289;-69
2023/09/04 02:49:07;;;;;;;7.43;6.60;;;;;;;;;;5020049;28;20257;-69
2023/09/04 02:51:33;;;;;;;9.70;6.38;;;;;;;;;;5024803;28;20262;-69
2023/09/04 02:53:58;;;;;;;8.55;6.55;;;;;;;;;;5020749;28;20281;-69
2023/09/04 02:56:23;;;;;;;8.20;6.63;;;;;;;;;;5029631;28;20233;-69
2023/09/04 02:58:49;;;;;;;9.60;6.07;;;;;;;;;;5028265;28;20540;-69
2023/09/04 03:01:16;;;;;;;9.55;6.47;;;;;;;;;;5027493;28;20179;-69
2023/09/04 03:03:41;;;;;;;7.72;5.90;;;;;;;;;;5019392;28;20656;-69
2023/09/04 03:06:07;;;;;;;8.52;6.55;;;;;;;;;;5022070;28;20213;-69
2023/09/04 03:08:32;;;;;;;6.50;5.60;;;;;;;;;;5027071;28;20563;-69
2023/09/04 03:10:57;;;;;;;8.13;6.25;;;;;;;;;;5027129;28;20183;-69
2023/09/04 03:13:22;;;;;;;6.80;6.07;;;;;;;;;;5021512;28;20242;-69
2023/09/04 03:15:48;;;;;;;10.65;6.90;;;;;;;;;;5019735;28;20187;-69
2023/09/04 03:18:13;;;;;;;7.07;5.60;;;;;;;;;;5030272;28;20231;-69
2023/09/04 03:20:38;;;;;;;9.18;7.22;;;;;;;;;;5021352;28;20201;-69
2023/09/04 03:23:03;;;;;;;10.60;6.80;;;;;;;;;;5026224;28;20185;-69
2023/09/04 03:25:29;;;;;;;8.30;6.60;;;;;;;;;;5030045;28;20202;-69
2023/09/04 03:27:54;;;;;;;11.55;6.35;;;;;;;;;;5021664;28;20167;-69
2023/09/04 03:30:19;;;;;;;11.23;7.55;;;;;;;;;;5023400;28;20613;-69
2023/09/04 03:32:44;;;;;;;8.93;7.25;;;;;;;;;;5024856;28;20221;-69
2023/09/04 03:35:10;;;;;;;9.15;7.10;;;;;;;;;;5024052;28;20301;-69
2023/09/04 03:37:36;;;;;;;7.28;5.90;;;;;;;;;;5028339;28;20214;-69
2023/09/04 03:40:20;;;;;;;9.38;6.60;;;;;;;;;;5013518;28;20186;-69
2023/09/04 03:42:46;;;;;;;10.60;7.47;;;;;;;;;;5031076;28;20191;-69
2023/09/04 03:45:11;;;;;;;8.90;7.22;;;;;;;;;;5029116;28;20210;-68
2023/09/04 03:47:37;;;;;;;11.95;7.68;;;;;;;;;;5028368;28;20181;-69
2023/09/04 03:50:02;;;;;;;10.43;8.07;;;;;;;;;;5023668;28;20621;-69
2023/09/04 03:52:27;;;;;;;12.50;8.18;;;;;;;;;;5023217;28;20186;-68
2023/09/04 03:54:52;;;;;;;10.20;7.78;;;;;;;;;;5022797;28;20285;-69
2023/09/04 03:57:17;;;;;;;9.35;7.15;;;;;;;;;;5024395;28;20181;-69
2023/09/04 03:59:43;;;;;;;11.02;7.75;;;;;;;;;;5028227;28;20568;-69
2023/09/04 04:02:08;;;;;;;13.50;7.88;;;;;;;;;;5016228;28;20675;-69
2023/09/04 04:04:33;;;;;;;13.13;9.35;;;;;;;;;;5022990;28;20613;-69
2023/09/04 04:06:59;;;;;;;12.13;8.32;;;;;;;;;;5030800;28;20217;-69
2023/09/04 04:09:24;;;;;;;15.57;8.65;;;;;;;;;;5031184;28;20185;-69
2023/09/04 04:11:49;;;;;;;11.15;7.47;;;;;;;;;;5025094;28;20177;-69
2023/09/04 04:14:15;;;;;;;10.38;7.07;;;;;;;;;;5027686;28;20230;-69
2023/09/04 04:16:40;;;;;;;9.18;6.75;;;;;;;;;;5024985;28;20186;-69
2023/09/04 04:19:05;;;;;;;11.02;8.27;;;;;;;;;;5024133;28;20201;-69
2023/09/04 04:21:31;;;;;;;8.82;7.20;;;;;;;;;;5028113;28;20386;-69
2023/09/04 04:23:56;;;;;;;8.57;7.43;;;;;;;;;;5022503;28;20211;-69
2023/09/04 04:26:21;;;;;;;11.18;8.10;;;;;;;;;;5023771;28;20261;-69
2023/09/04 04:28:46;;;;;;;12.85;8.18;;;;;;;;;;5021915;28;20232;-69
2023/09/04 04:31:11;;;;;;;10.98;8.27;;;;;;;;;;5028597;28;20687;-69
2023/09/04 04:33:37;;;;;;;10.52;7.88;;;;;;;;;;5022478;28;20186;-69
2023/09/04 04:36:03;;;;;;;10.50;8.02;;;;;;;;;;5030900;28;20183;-69
2023/09/04 04:38:29;;;;;;;14.40;8.82;;;;;;;;;;5026062;28;20264;-69
2023/09/04 04:40:55;;;;;;;11.80;9.15;;;;;;;;;;5022963;28;20310;-69
2023/09/04 04:43:21;;;;;;;12.68;9.10;;;;;;;;;;5023615;28;20277;-69
2023/09/04 04:45:46;;;;;;;11.40;9.15;;;;;;;;;;5021643;28;20691;-69
2023/09/04 04:48:11;;;;;;;13.20;9.30;;;;;;;;;;5028573;28;20223;-69
2023/09/04 04:50:36;;;;;;;12.55;9.80;;;;;;;;;;5029925;28;20554;-69
2023/09/04 04:53:03;;;;;;;16.13;10.98;;;;;;;;;;5029365;28;20527;-69
2023/09/04 04:55:28;;;;;;;15.27;11.15;;;;;;;;;;5025582;28;20174;-69
2023/09/04 04:57:53;;;;;;;16.25;11.00;;;;;;;;;;5024891;28;20249;-69
2023/09/04 05:00:18;;;;;;;17.42;10.85;;;;;;;;;;5031037;28;20349;-69
2023/09/04 05:02:44;;;;;;;16.88;11.98;;;;;;;;;;5020318;28;20550;-69
2023/09/04 05:05:10;;;;;;;16.52;12.10;;;;;;;;;;5025133;28;20355;-69
2023/09/04 05:07:36;;;;;;;19.30;12.40;;;;;;;;;;5023261;28;20249;-69
2023/09/04 05:10:02;;;;;;;17.65;11.30;;;;;;;;;;5023445;28;20261;-69
2023/09/04 05:12:27;;;;;;;17.80;12.07;;;;;;;;;;5027882;28;20249;-69
2023/09/04 05:14:52;;;;;;;16.20;11.48;;;;;;;;;;5023631;28;20334;-69
2023/09/04 05:17:18;;;;;;;13.57;10.43;;;;;;;;;;5026311;28;20171;-69
2023/09/04 05:19:43;;;;;;;16.90;11.60;;;;;;;;;;5028443;28;20174;-69
2023/09/04 05:22:09;;;;;;;16.48;10.75;;;;;;;;;;5026981;28;20201;-69
2023/09/04 05:24:34;;;;;;;12.43;9.75;;;;;;;;;;5029716;28;20229;-69
2023/09/04 05:26:59;;;;;;;13.88;10.13;;;;;;;;;;5022531;28;20209;-69
2023/09/04 05:29:25;;;;;;;14.60;10.15;;;;;;;;;;5021631;28;20244;-69
2023/09/04 05:31:50;;;;;;;16.55;10.52;;;;;;;;;;5026377;28;20257;-70
2023/09/04 05:34:16;;;;;;;13.20;9.15;;;;;;;;;;5017542;28;20277;-70
2023/09/04 05:36:41;;;;;;;15.77;10.80;;;;;;;;;;5022165;28;20174;-70
2023/09/04 05:39:06;;;;;;;12.43;9.02;;;;;;;;;;5020965;28;20666;-69
2023/09/04 05:41:31;;;;;;;12.18;9.45;;;;;;;;;;5021712;28;20557;-70
2023/09/04 05:43:56;;;;;;;13.70;9.43;;;;;;;;;;5023161;28;20783;-69
2023/09/04 05:46:22;;;;;;;13.82;9.50;;;;;;;;;;5025288;28;20206;-69
2023/09/04 05:48:47;;;;;;;12.30;9.75;;;;;;;;;;5022389;28;20545;-70
2023/09/04 05:51:13;;;;;;;12.20;9.77;;;;;;;;;;5025085;28;20644;-69
2023/09/04 05:53:38;;;;;;;14.93;10.18;;;;;;;;;;5016299;28;20190;-69
2023/09/04 05:56:07;;;;;;;13.52;10.32;;;;;;;;;;5026714;28;20191;-69
2023/09/04 05:58:33;;;;;;;13.75;9.77;;;;;;;;;;5021132;28;20258;-69
2023/09/04 06:00:58;;;;;;;13.38;9.13;;;;;;;;;;5015042;28;20261;-69
2023/09/04 06:03:24;;;;;;;13.88;9.95;;;;;;;;;;5015375;28;20203;-69
2023/09/04 06:05:49;;;;;;;12.35;10.25;;;;;;;;;;5024557;28;20217;-69
2023/09/04 06:08:17;;;;;;;18.50;10.32;;;;;;;;;;5025531;28;20182;-69
2023/09/04 06:10:43;;;;;;;12.63;9.32;;;;;;;;;;5027445;28;20220;-69
2023/09/04 06:13:08;;;;;;;16.10;10.30;;;;;;;;;;5028684;28;20178;-69
2023/09/04 06:15:34;;;;;;;18.95;10.88;;;;;;;;;;5019502;28;20611;-69
2023/09/04 06:17:59;;;;;;;14.95;9.73;;;;;;;;;;5015193;28;20183;-69
2023/09/04 06:20:25;;;;;;;12.82;9.60;;;;;;;;;;5014651;28;20182;-70
2023/09/04 06:22:50;;;;;;;13.45;9.43;;;;;;;;;;5021414;28;20186;-69
2023/09/04 06:25:17;;;;;;;11.52;8.70;;;;;;;;;;5027568;22;20272;-68
2023/09/04 06:27:42;;;;;;;13.05;9.63;;;;;;;;;;5020822;28;20274;-68
2023/09/04 06:30:07;;;;;;;11.52;8.63;;;;;;;;;;5022506;28;20656;-68
2023/09/04 06:32:33;;;;;;;15.02;9.70;;;;;;;;;;5032035;28;20210;-69
2023/09/04 06:34:58;;;;;;;12.82;9.45;;;;;;;;;;5030790;28;20200;-69
2023/09/04 06:37:25;;;;;;;15.43;9.15;;;;;;;;;;5031813;28;20166;-69
2023/09/04 06:39:50;;;;;;;15.82;9.32;;;;;;;;;;5029373;28;20269;-68
2023/09/04 06:42:15;;;;;;;10.43;8.07;;;;;;;;;;5020421;28;20667;-68
2023/09/04 06:44:40;;;;;;;11.63;8.38;;;;;;;;;;5031252;28;20208;-69
2023/09/04 06:47:06;;;;;;;12.05;9.80;;;;;;;;;;5027301;28;20211;-68
2023/09/04 06:49:31;;;;;;;12.27;9.70;;;;;;;;;;5021266;28;20175;-68
2023/09/04 06:51:56;;;;;;;10.77;8.95;;;;;;;;;;5016974;28;20277;-69
2023/09/04 06:54:21;;;;;;;11.63;8.77;;;;;;;;;;5024056;28;20199;-69
2023/09/04 06:56:46;;;;;;;13.43;9.25;;;;;;;;;;5026001;28;20556;-69
2023/09/04 06:59:12;;;;;;;10.68;8.65;;;;;;;;;;5023548;28;20261;-69
2023/09/04 07:01:37;;;;;;;12.75;9.02;;;;;;;;;;5021149;28;20261;-69
2023/09/04 07:04:02;;;;;;;16.65;7.97;;;;;;;;;;5024655;28;20686;-68
2023/09/04 07:06:27;;;;;;;8.82;7.20;;;;;;;;;;5025795;28;20269;-69
2023/09/04 07:08:53;;;;;;;11.23;9.15;;;;;;;;;;5027048;28;20687;-69
2023/09/04 07:11:18;;;;;;;11.77;8.45;;;;;;;;;;5022853;28;20543;-69
2023/09/04 07:13:44;;;;;;;11.48;7.78;;;;;;;;;;5024607;28;20572;-69
2023/09/04 07:16:09;;;;;;;9.85;7.70;;;;;;;;;;5032055;28;20637;-69
2023/09/04 07:18:34;;;;;;;10.80;8.15;;;;;;;;;;5028838;28;20265;-69
2023/09/04 07:20:59;;;;;;;10.50;7.90;;;;;;;;;;5028539;28;20190;-69
2023/09/04 07:23:24;;;;;;;8.73;7.18;;;;;;;;;;5022785;28;20641;-69
2023/09/04 07:25:54;;;;;;;12.02;9.10;;;;;;;;;;5025646;28;20676;-69
2023/09/04 07:28:19;;;;;;;14.68;8.77;;;;;;;;;;5031029;28;20200;-69
2023/09/04 07:30:45;;;;;;;9.57;7.90;;;;;;;;;;5033640;28;20684;-69
2023/09/04 07:33:10;;;;;;;16.30;8.63;;;;;;;;;;5027438;28;20703;-69
2023/09/04 07:35:35;;;;;;;9.57;7.22;;;;;;;;;;5025405;28;20880;-69
2023/09/04 07:38:00;;;;;;;10.10;7.70;;;;;;;;;;5031770;28;20178;-68
2023/09/04 07:40:26;;;;;;;10.07;8.02;;;;;;;;;;5030212;28;20218;-69
2023/09/04 07:42:51;;;;;;;9.25;7.45;;;;;;;;;;5028692;28;20174;-69
2023/09/04 07:45:16;;;;;;;10.30;8.45;;;;;;;;;;5033346;28;20211;-69
2023/09/04 07:47:42;;;;;;;9.85;7.65;;;;;;;;;;5026614;28;20174;-68
2023/09/04 07:50:07;;;;;;;10.48;6.82;;;;;;;;;;5015614;28;20621;-68
2023/09/04 07:52:32;;;;;;;9.80;7.53;;;;;;;;;;5024059;28;20175;-68
2023/09/04 07:54:57;;;;;;;8.32;7.38;;;;;;;;;;5023086;28;20194;-68
2023/09/04 07:57:23;;;;;;;9.25;7.93;;;;;;;;;;5032225;28;20252;-69
2023/09/04 07:59:48;;;;;;;10.77;8.65;;;;;;;;;;5022757;28;20178;-69
2023/09/04 08:02:13;;;;;;;10.77;8.05;;;;;;;;;;5025479;28;20629;-68
2023/09/04 08:04:38;;;;;;;8.95;7.80;;;;;;;;;;5017229;28;20194;-68
2023/09/04 08:07:04;;;;;;;9.63;7.68;;;;;;;;;;5021677;28;20210;-71
2023/09/04 08:09:29;;;;;;;8.23;6.60;;;;;;;;;;5024540;28;20175;-70
2023/09/04 08:11:54;;;;;;;8.10;7.30;;;;;;;;;;5026951;28;20182;-69
2023/09/04 08:14:19;;;;;;;8.52;7.13;;;;;;;;;;5015042;28;20420;-69
2023/09/04 08:16:44;;;;;;;8.52;6.38;;;;;;;;;;5016019;28;20179;-69
2023/09/04 08:19:10;;;;;;;11.45;8.85;;;;;;;;;;5033051;28;20196;-69
2023/09/04 08:21:35;;;;;;;10.13;7.65;;;;;;;;;;5027880;28;20175;-69
2023/09/04 08:24:00;;;;;;;8.25;7.40;;;;;;;;;;5027344;28;20731;-69
2023/09/04 08:26:26;;;;;;;8.77;7.88;;;;;;;;;;5025491;28;20280;-69
2023/09/04 08:28:51;;;;;;;7.13;6.43;;;;;;;;;;5033161;28;20170;-70
2023/09/04 08:31:16;;;;;;;9.98;6.72;;;;;;;;;;5029850;28;20194;-70
2023/09/04 08:33:41;;;;;;;9.15;7.18;;;;;;;;;;5024301;28;20206;-69
2023/09/04 08:36:06;;;;;;;11.38;7.07;;;;;;;;;;5016795;28;20183;-69
2023/09/04 08:38:32;;;;;;;12.77;6.78;;;;;;;;;;5021171;28;20181;-69
2023/09/04 08:41:00;;;;;;;9.45;6.85;;;;;;;;;;5023049;28;20186;-69
2023/09/04 08:43:28;;;;;;;8.80;7.13;;;;;;;;;;5021442;28;20174;-69
2023/09/04 08:45:54;;;;;;;8.88;7.10;;;;;;;;;;5027321;28;20205;-69
2023/09/04 08:48:20;;;;;;;8.82;6.10;;;;;;;;;;5023863;28;20526;-69
2023/09/04 08:50:46;;;;;;;7.68;6.18;;;;;;;;;;5027730;28;20161;-69
2023/09/04 08:53:11;;;;;;;9.02;6.10;;;;;;;;;;5028418;28;20190;-69
2023/09/04 08:55:37;;;;;;;7.43;6.00;;;;;;;;;;5019297;28;20203;-69
2023/09/04 08:58:03;;;;;;;9.57;6.85;;;;;;;;;;5022630;28;20186;-69
2023/09/04 09:00:29;;;;;;;8.23;6.60;;;;;;;;;;5019144;28;20700;-69
2023/09/04 09:02:57;;;;;;;8.10;6.75;;;;;;;;;;5027389;28;20218;-69
2023/09/04 09:05:23;;;;;;;6.30;5.70;;;;;;;;;;5021787;28;20202;-69
2023/09/04 09:07:48;;;;;;;8.30;6.28;;;;;;;;;;5021454;28;20648;-69
2023/09/04 09:10:16;;;;;;;6.13;5.45;;;;;;;;;;5022708;28;20206;-70
2023/09/04 09:12:41;;;;;;;10.02;5.90;;;;;;;;;;5023361;28;20188;-70
2023/09/04 09:15:07;;;;;;;6.87;5.43;;;;;;;;;;5015120;28;20182;-70
2023/09/04 09:17:32;;;;;;;10.07;5.93;;;;;;;;;;5023463;28;20412;-70
2023/09/04 09:19:57;;;;;;;6.75;5.28;;;;;;;;;;5028675;28;20201;-70
2023/09/04 09:22:23;;;;;;;6.45;5.80;;;;;;;;;;5023561;28;20185;-69
2023/09/04 09:24:51;;;;;;;7.32;5.80;;;;;;;;;;5024555;28;20215;-70
2023/09/04 09:27:17;;;;;;;6.00;5.40;;;;;;;;;;5024312;28;20258;-70
2023/09/04 09:29:43;;;;;;;6.45;4.82;;;;;;;;;;5018835;28;20177;-69
2023/09/04 09:32:09;;;;;;;8.83;6.60;;;;;;;;;;5022294;28;20605;-70
2023/09/04 09:34:34;;;;;;;8.75;5.75;;;;;;;;;;5022247;28;20412;-69
2023/09/04 09:37:00;;;;;;;5.30;4.80;;;;;;;;;;5026955;28;20713;-69
2023/09/04 09:39:25;;;;;;;7.68;6.00;;;;;;;;;;5016552;28;20190;-70
2023/09/04 09:41:50;;;;;;;8.55;5.10;;;;;;;;;;5018949;28;20633;-69
2023/09/04 09:44:16;;;;;;;6.75;5.50;;;;;;;;;;5016992;28;20736;-68
2023/09/04 09:46:41;;;;;;;6.85;5.10;;;;;;;;;;5025050;28;20198;-69
2023/09/04 09:49:07;;;;;;;6.05;5.18;;;;;;;;;;5026002;28;20183;-69
2023/09/04 09:51:32;;;;;;;5.40;4.40;;;;;;;;;;5031075;28;20173;-68
2023/09/04 09:53:57;;;;;;;7.05;6.10;;;;;;;;;;5031341;28;20209;-69
2023/09/04 09:56:23;;;;;;;8.57;5.88;;;;;;;;;;5024914;28;20640;-68
2023/09/04 09:58:49;;;;;;;8.52;5.47;;;;;;;;;;5023909;28;20618;-69
2023/09/04 10:01:15;;;;;;;9.02;5.03;;;;;;;;;;5030355;28;20701;-69
2023/09/04 10:03:40;;;;;;;6.75;5.63;;;;;;;;;;5028622;28;20202;-69
2023/09/04 10:06:06;;;;;;;6.35;5.03;;;;;;;;;;5025393;28;20210;-69
2023/09/04 10:08:52;;;;;;;7.53;5.45;;;;;;;;;;5025876;28;20555;-70
2023/09/04 10:11:17;;;;;;;6.32;4.72;;;;;;;;;;5021711;28;20205;-70
2023/09/04 10:13:52;;;;;;;7.57;4.80;;;;;;;;;;5028531;28;20186;-70
2023/09/04 10:16:19;;;;;;;6.43;4.43;;;;;;;;;;5025503;28;20167;-68
2023/09/04 10:18:46;;;;;;;5.28;4.05;;;;;;;;;;5013696;28;20182;-70
2023/09/04 10:21:14;;;;;;;5.70;4.30;;;;;;;;;;5019081;28;20193;-70
2023/09/04 10:23:49;;;;;;;5.10;4.38;;;;;;;;;;5028288;28;20672;-70
2023/09/04 10:26:38;;;;;;;7.13;4.72;;;;;;;;;;5014570;28;20198;-70
2023/09/04 10:29:16;;;;;;;8.13;5.57;;;;;;;;;;5020993;28;20673;-70
2023/09/04 10:31:42;;;;;;;9.20;5.13;;;;;;;;;;5022591;28;20700;-70
2023/09/04 10:34:08;;;;;;;7.90;4.30;;;;;;;;;;5018354;28;20257;-70
2023/09/04 10:36:33;;;;;;;7.47;4.72;;;;;;;;;;5026685;28;20652;-70
2023/09/04 10:38:59;;;;;;;5.72;4.97;;;;;;;;;;5021091;28;20174;-70
2023/09/04 10:41:25;;;;;;;6.20;4.50;;;;;;;;;;5027008;28;20624;-70
2023/09/04 10:43:51;;;;;;;5.28;4.40;;;;;;;;;;5023826;28;20676;-70
2023/09/04 10:46:16;;;;;;;5.93;4.47;;;;;;;;;;5026707;28;20209;-70
2023/09/04 10:48:49;;;;;;;7.05;4.07;;;;;;;;;;5031798;28;20583;-70
2023/09/04 10:51:29;;;;;;;5.07;4.47;;;;;;;;;;5022524;28;20679;-70
2023/09/04 10:53:55;;;;;;;5.80;4.15;;;;;;;;;;5024840;28;20205;-70
2023/09/04 10:56:21;;;;;;;4.93;4.10;;;;;;;;;;5024306;28;20493;-69
2023/09/04 10:59:03;;;;;;;6.00;3.72;;;;;;;;;;5027818;28;20661;-70
2023/09/04 11:01:31;;;;;;;6.72;4.00;;;;;;;;;;5026687;28;20170;-70
2023/09/04 11:03:56;;;;;;;5.40;3.80;;;;;;;;;;5032301;28;20223;-69
2023/09/04 11:06:22;;;;;;;4.13;3.00;;;;;;;;;;5030264;28;20711;-70
2023/09/04 11:08:51;;;;;;;4.93;4.20;;;;;;;;;;5029912;28;20175;-69
2023/09/04 11:11:19;;;;;;;4.30;3.88;;;;;;;;;;5029058;28;20439;-69
2023/09/04 11:13:45;;;;;;;4.40;3.47;;;;;;;;;;5028645;28;20244;-69
2023/09/04 11:16:10;;;;;;;5.05;3.90;;;;;;;;;;5017738;28;20182;-69
2023/09/04 11:18:36;;;;;;;8.10;3.90;;;;;;;;;;5023630;28;20232;-69
2023/09/04 11:21:03;;;;;;;6.47;4.28;;;;;;;;;;5023050;28;20408;-69
2023/09/04 11:23:29;;;;;;;4.18;3.72;;;;;;;;;;5024670;28;20186;-69
2023/09/04 11:25:55;;;;;;;4.55;4.07;;;;;;;;;;5023764;28;20194;-69
2023/09/04 11:28:23;;;;;;;4.55;3.72;;;;;;;;;;5029180;28;20179;-68
2023/09/04 11:30:59;;;;;;;5.20;4.40;;;;;;;;;;5023810;28;20221;-70
2023/09/04 11:33:24;;;;;;;4.20;3.78;;;;;;;;;;5025221;28;20166;-71
2023/09/04 11:36:03;;;;;;;4.93;3.67;;;;;;;;;;5020032;28;20232;-69
2023/09/04 11:38:29;;;;;;;3.67;3.28;;;;;;;;;;5032075;28;20175;-70
2023/09/04 11:40:55;;;;;;;5.28;2.90;;;;;;;;;;5025360;28;20175;-69
2023/09/04 11:43:22;;;;;;;4.57;2.75;;;;;;;;;;5030874;28;20277;-69
2023/09/04 11:45:48;;;;;;;3.05;2.75;;;;;;;;;;5019529;28;20249;-71
2023/09/04 11:48:13;;;;;;;3.10;2.50;;;;;;;;;;5031255;28;20679;-70
2023/09/04 11:50:38;;;;;;;3.50;2.42;;;;;;;;;;5021178;28;20591;-68
2023/09/04 11:53:04;;;;;;;2.58;2.25;;;;;;;;;;5027455;28;20234;-70
2023/09/04 11:55:29;;;;;;;3.47;2.50;;;;;;;;;;5022158;28;20191;-70
2023/09/04 11:57:55;;;;;;;3.35;2.05;;;;;;;;;;5029163;28;20181;-70
2023/09/04 12:00:20;;;;;;;5.90;3.15;;;;;;;;;;5022113;28;20580;-70
2023/09/04 12:02:45;;;;;;;3.03;2.00;;;;;;;;;;5030212;28;20252;-70
2023/09/04 12:05:13;;;;;;;3.55;2.08;;;;;;;;;;5031776;28;20213;-69
2023/09/04 12:07:39;;;;;;;4.10;2.55;;;;;;;;;;5022998;28;20174;-70
2023/09/04 12:10:06;;;;;;;2.53;1.77;;;;;;;;;;5016671;28;20273;-69
2023/09/04 12:12:32;;;;;;;4.32;2.80;;;;;;;;;;5032341;28;20201;-70
2023/09/04 12:14:57;;;;;;;3.58;2.83;;;;;;;;;;5024103;28;20689;-70
2023/09/04 12:17:22;;;;;;;3.60;2.88;;;;;;;;;;5033881;28;20609;-70
2023/09/04 12:19:48;;;;;;;2.75;2.20;;;;;;;;;;5020655;28;20259;-70
2023/09/04 12:22:14;;;;;;;4.68;2.10;;;;;;;;;;5029179;28;20186;-70
2023/09/04 12:24:39;;;;;;;4.82;2.13;;;;;;;;;;5028573;23;20226;-65
2023/09/04 12:27:05;;;;;;;2.70;1.98;;;;;;;;;;5015922;28;20233;-65
2023/09/04 12:29:30;;;;;;;4.72;2.10;;;;;;;;;;5028537;28;20635;-65
2023/09/04 12:31:57;;;;;;;2.30;2.10;;;;;;;;;;5033820;28;20635;-65
2023/09/04 12:34:25;;;;;;;2.83;2.30;;;;;;;;;;5022896;28;20522;-65
2023/09/04 12:36:54;;;;;;;3.25;2.03;;;;;;;;;;5029759;28;20181;-65
2023/09/04 12:39:19;;;;;;;2.75;2.30;;;;;;;;;;5032874;28;20555;-65
2023/09/04 12:41:51;;;;;;;2.83;1.90;;;;;;;;;;5032802;28;20170;-65
2023/09/04 12:44:17;;;;;;;2.00;1.80;;;;;;;;;;5033206;28;20738;-65
2023/09/04 12:46:42;;;;;;;2.53;2.00;;;;;;;;;;5032608;28;20210;-66
2023/09/04 12:49:08;;;;;;;2.67;1.87;;;;;;;;;;5033389;28;20509;-66
2023/09/04 12:51:33;;;;;;;3.17;2.50;;;;;;;;;;5033653;28;20489;-66
2023/09/04 12:53:58;;;;;;;2.95;2.10;;;;;;;;;;5033216;28;20682;-66
2023/09/04 12:56:23;;;;;;;3.03;2.63;;;;;;;;;;5033410;28;20258;-66
2023/09/04 12:58:48;;;;;;;6.80;2.10;;;;;;;;;;5033462;28;20506;-66
2023/09/04 13:01:14;;;;;;;2.95;1.80;;;;;;;;;;5031596;28;20236;-66
2023/09/04 13:03:39;;;;;;;2.67;2.17;;;;;;;;;;5032304;28;20170;-65
2023/09/04 13:06:04;;;;;;;4.13;2.60;;;;;;;;;;5032190;28;20497;-66
2023/09/04 13:08:29;;;;;;;2.80;2.50;;;;;;;;;;5030703;28;20411;-66
2023/09/04 13:10:55;;;;;;;5.05;3.22;;;;;;;;;;5030525;28;20407;-65
2023/09/04 13:13:20;;;;;;;3.10;2.00;;;;;;;;;;5032049;28;20248;-66
2023/09/04 13:15:45;;;;;;;2.70;1.93;;;;;;;;;;5032128;28;20226;-66
2023/09/04 13:18:10;;;;;;;2.50;2.23;;;;;;;;;;5031896;28;20419;-67
2023/09/04 13:20:35;;;;;;;4.13;2.40;;;;;;;;;;5031264;28;20439;-67
2023/09/04 13:23:01;;;;;;;2.38;2.08;;;;;;;;;;5028168;28;20777;-66
2023/09/04 13:25:26;;;;;;;6.27;2.60;;;;;;;;;;5027464;28;20318;-66
2023/09/04 13:27:51;;;;;;;2.70;2.00;;;;;;;;;;5022581;28;20432;-67
2023/09/04 13:30:16;;;;;;;4.23;1.83;;;;;;;;;;5030204;28;20174;-64
2023/09/04 13:32:41;;;;;;;2.83;2.07;;;;;;;;;;5022318;28;20415;-66
2023/09/04 13:35:07;;;;;;;4.90;2.10;;;;;;;;;;5020665;28;20443;-66
2023/09/04 13:37:33;;;;;;;5.28;2.80;;;;;;;;;;5028608;28;20427;-66
2023/09/04 13:39:58;;;;;;;4.15;2.30;;;;;;;;;;5025883;28;20178;-65
2023/09/04 13:42:24;;;;;;;2.50;2.00;;;;;;;;;;5028837;28;20174;-66
2023/09/04 13:44:49;;;;;;;2.25;2.05;;;;;;;;;;5030881;28;20553;-66
2023/09/04 13:47:15;;;;;;;2.95;2.15;;;;;;;;;;5028348;28;20205;-65
2023/09/04 13:49:40;;;;;;;3.33;2.30;;;;;;;;;;5030869;28;20178;-65
2023/09/04 13:52:05;;;;;;;4.43;2.30;;;;;;;;;;5031472;28;20173;-65
2023/09/04 13:54:31;;;;;;;3.00;2.05;;;;;;;;;;5030713;28;20451;-65
2023/09/04 13:56:56;;;;;;;3.40;2.13;;;;;;;;;;5030728;28;20185;-65
2023/09/04 13:59:22;;;;;;;3.37;2.07;;;;;;;;;;5030810;28;20268;-66
2023/09/04 14:01:48;;;;;;;3.90;2.15;;;;;;;;;;5029831;28;20415;-66
2023/09/04 14:04:13;;;;;;;2.85;2.42;;;;;;;;;;5031048;28;20217;-66
2023/09/04 14:06:38;;;;;;;3.40;2.25;;;;;;;;;;5026809;28;20208;-65
2023/09/04 14:09:03;;;;;;;5.07;2.42;;;;;;;;;;5029529;28;20224;-67
2023/09/04 14:11:29;;;;;;;6.38;2.70;;;;;;;;;;5031379;28;20651;-66
2023/09/04 14:13:55;;;;;;;5.22;2.47;;;;;;;;;;5030503;28;20607;-67
2023/09/04 14:16:20;;;;;;;3.88;2.55;;;;;;;;;;5030528;28;20182;-67
2023/09/04 14:18:45;;;;;;;3.38;1.95;;;;;;;;;;5030559;28;20178;-66
2023/09/04 14:21:11;;;;;;;3.85;2.80;;;;;;;;;;5030839;28;20189;-66
2023/09/04 14:23:36;;;;;;;4.17;2.13;;;;;;;;;;5028466;28;20184;-65
2023/09/04 14:26:01;;;;;;;3.93;2.03;;;;;;;;;;5030818;28;20550;-66
2023/09/04 14:28:26;;;;;;;3.97;2.33;;;;;;;;;;5030740;28;20407;-66
2023/09/04 14:30:52;;;;;;;3.87;2.90;;;;;;;;;;5025654;28;20244;-66